createdAt,value
2019-03-28T00:00:23.866Z,8.73
2019-03-28T00:02:52.513Z,8.71
2019-03-28T00:05:21.205Z,8.73
2019-03-28T00:07:49.864Z,8.72
2019-03-28T00:10:18.654Z,8.64
2019-03-28T00:12:47.349Z,8.61
2019-03-28T00:15:16.166Z,8.61
2019-03-28T00:17:44.899Z,8.60
2019-03-28T00:20:16.330Z,8.60
2019-03-28T00:22:48.644Z,8.63
2019-03-28T00:25:19.130Z,8.64
2019-03-28T00:27:47.859Z,8.67
2019-03-28T00:30:18.346Z,8.65
2019-03-28T00:32:48.740Z,8.68
2019-03-28T00:35:17.414Z,8.63
2019-03-28T00:37:46.099Z,8.62
2019-03-28T00:40:14.926Z,8.63
2019-03-28T00:42:43.665Z,8.65
2019-03-28T00:45:13.722Z,8.66
2019-03-28T00:47:42.443Z,8.67
2019-03-28T00:50:11.231Z,8.66
2019-03-28T00:52:39.798Z,8.70
2019-03-28T00:55:08.807Z,8.66
2019-03-28T00:57:37.487Z,8.66
2019-03-28T01:00:08.282Z,8.66
2019-03-28T01:02:37.096Z,8.69
2019-03-28T01:05:07.438Z,8.71
2019-03-28T01:07:36.165Z,8.72
2019-03-28T01:10:06.304Z,8.74
2019-03-28T01:12:34.940Z,8.55
2019-03-28T01:15:04.982Z,8.66
2019-03-28T01:17:33.686Z,8.68
2019-03-28T01:20:02.315Z,8.65
2019-03-28T01:22:31.112Z,8.60
2019-03-28T01:25:00.039Z,8.64
2019-03-28T01:27:28.673Z,8.59
2019-03-28T01:29:57.438Z,8.60
2019-03-28T01:32:26.258Z,8.60
2019-03-28T01:34:54.940Z,8.61
2019-03-28T01:37:23.693Z,8.55
2019-03-28T01:39:52.374Z,8.52
2019-03-28T01:42:21.075Z,8.57
2019-03-28T01:44:49.974Z,8.58
2019-03-28T01:47:18.695Z,8.52
2019-03-28T01:49:47.434Z,8.51
2019-03-28T01:52:16.087Z,8.50
2019-03-28T01:54:44.753Z,8.50
2019-03-28T01:57:13.669Z,8.49
2019-03-28T01:59:42.310Z,8.48
2019-03-28T02:02:11.013Z,8.56
2019-03-28T02:04:39.667Z,8.56
2019-03-28T02:07:08.455Z,8.54
2019-03-28T02:09:37.105Z,8.52
2019-03-28T02:12:05.886Z,8.57
2019-03-28T02:14:34.721Z,8.68
2019-03-28T02:17:03.359Z,8.70
2019-03-28T02:19:32.116Z,8.03
2019-03-28T02:22:00.759Z,8.60
2019-03-28T02:24:29.461Z,8.54
2019-03-28T02:26:58.180Z,8.52
2019-03-28T02:29:26.831Z,8.49
2019-03-28T02:31:55.520Z,8.48
2019-03-28T02:34:24.253Z,8.54
2019-03-28T02:36:52.937Z,8.56
2019-03-28T02:39:21.571Z,8.52
2019-03-28T02:41:50.422Z,8.49
2019-03-28T02:44:19.136Z,8.48
2019-03-28T02:46:47.855Z,8.51
2019-03-28T02:49:16.689Z,8.47
2019-03-28T02:51:45.235Z,8.50
2019-03-28T02:54:14.038Z,8.43
2019-03-28T02:56:42.724Z,8.47
2019-03-28T02:59:11.443Z,8.56
2019-03-28T03:01:40.638Z,8.50
2019-03-28T03:04:10.655Z,8.49
2019-03-28T03:06:39.434Z,8.56
2019-03-28T03:09:09.569Z,8.39
2019-03-28T03:11:42.479Z,8.46
2019-03-28T03:14:08.920Z,8.55
2019-03-28T03:16:37.734Z,8.53
2019-03-28T03:19:06.564Z,8.59
2019-03-28T03:21:36.068Z,8.41
2019-03-28T03:24:05.901Z,8.38
2019-03-28T03:26:34.737Z,8.47
2019-03-28T03:29:03.539Z,8.45
2019-03-28T03:31:32.419Z,8.43
2019-03-28T03:34:01.179Z,8.47
2019-03-28T03:36:29.856Z,8.32
2019-03-28T03:38:58.745Z,8.39
2019-03-28T03:41:27.377Z,8.31
2019-03-28T03:43:56.175Z,8.34
2019-03-28T03:46:25.002Z,8.26
2019-03-28T03:48:53.931Z,8.08
2019-03-28T03:51:22.541Z,8.24
2019-03-28T03:53:51.174Z,8.13
2019-03-28T03:56:19.909Z,8.17
2019-03-28T03:58:48.577Z,8.27
2019-03-28T04:01:17.295Z,8.27
2019-03-28T04:03:46.013Z,8.21
2019-03-28T04:06:14.824Z,8.23
2019-03-28T04:08:43.651Z,8.23
2019-03-28T04:11:12.431Z,8.29
2019-03-28T04:13:41.181Z,8.28
2019-03-28T04:16:09.882Z,8.30
2019-03-28T04:18:39.800Z,8.26
2019-03-28T04:21:09.211Z,8.28
2019-03-28T04:23:37.859Z,8.28
2019-03-28T04:26:06.817Z,8.27
2019-03-28T04:28:35.453Z,8.27
2019-03-28T04:31:05.016Z,8.16
2019-03-28T04:33:33.739Z,7.26
2019-03-28T04:36:02.478Z,8.06
2019-03-28T04:38:31.202Z,8.09
2019-03-28T04:41:00.326Z,7.93
2019-03-28T04:43:29.279Z,7.96
2019-03-28T04:45:57.877Z,7.97
2019-03-28T04:48:27.268Z,7.97
2019-03-28T04:50:56.658Z,7.99
2019-03-28T04:53:25.384Z,8.04
2019-03-28T04:55:54.126Z,8.13
2019-03-28T04:58:23.412Z,8.05
2019-03-28T05:00:53.595Z,8.13
2019-03-28T05:03:22.287Z,8.05
2019-03-28T05:06:01.156Z,8.02
2019-03-28T05:08:30.979Z,7.99
2019-03-28T05:11:00.946Z,7.95
2019-03-28T05:13:29.747Z,7.95
2019-03-28T05:15:58.384Z,7.95
2019-03-28T05:18:27.160Z,8.00
2019-03-28T05:20:55.876Z,8.13
2019-03-28T05:23:24.527Z,8.08
2019-03-28T05:25:53.255Z,8.04
2019-03-28T05:28:21.967Z,8.09
2019-03-28T05:30:50.710Z,8.06
2019-03-28T05:33:19.380Z,8.11
2019-03-28T05:35:48.771Z,8.12
2019-03-28T05:38:17.468Z,8.12
2019-03-28T05:40:46.153Z,8.16
2019-03-28T05:43:14.862Z,8.22
2019-03-28T05:45:49.900Z,8.29
2019-03-28T05:48:18.664Z,8.43
2019-03-28T05:50:48.829Z,8.37
2019-03-28T05:53:17.528Z,8.33
2019-03-28T05:55:46.311Z,8.35
2019-03-28T05:58:15.062Z,8.37
2019-03-28T06:00:43.872Z,8.37
2019-03-28T06:03:12.584Z,8.40
2019-03-28T06:05:41.312Z,8.44
2019-03-28T06:08:09.958Z,8.43
2019-03-28T06:10:38.797Z,8.55
2019-03-28T06:13:07.562Z,8.55
2019-03-28T06:15:36.289Z,8.59
2019-03-28T06:18:05.392Z,8.67
2019-03-28T06:20:34.086Z,8.76
2019-03-28T06:23:02.907Z,8.78
2019-03-28T06:25:31.668Z,8.81
2019-03-28T06:28:00.438Z,8.89
2019-03-28T06:30:29.230Z,8.98
2019-03-28T06:32:58.968Z,9.09
2019-03-28T06:35:28.445Z,9.15
2019-03-28T06:37:57.249Z,9.24
2019-03-28T06:40:26.050Z,9.33
2019-03-28T06:42:54.784Z,9.46
2019-03-28T06:45:23.414Z,9.54
2019-03-28T06:47:52.122Z,9.49
2019-03-28T06:50:20.780Z,9.51
2019-03-28T06:52:49.492Z,9.57
2019-03-28T06:55:18.289Z,9.59
2019-03-28T06:57:46.892Z,9.78
2019-03-28T07:00:16.568Z,9.90
2019-03-28T07:02:45.264Z,10.13
2019-03-28T07:05:14.166Z,10.19
2019-03-28T07:07:42.937Z,10.32
2019-03-28T07:10:11.859Z,10.80
2019-03-28T07:12:40.565Z,11.54
2019-03-28T07:15:10.470Z,12.20
2019-03-28T07:17:39.172Z,12.80
2019-03-28T07:20:09.598Z,13.63
2019-03-28T07:22:38.278Z,13.98
2019-03-28T07:25:08.410Z,14.44
2019-03-28T07:27:37.166Z,14.68
2019-03-28T07:30:08.783Z,14.55
2019-03-28T07:32:37.596Z,15.34
2019-03-28T07:35:07.685Z,15.39
2019-03-28T07:37:36.401Z,14.78
2019-03-28T07:40:07.693Z,13.93
2019-03-28T07:42:36.382Z,13.33
2019-03-28T07:45:08.063Z,13.04
2019-03-28T07:47:36.783Z,12.85
2019-03-28T07:50:08.862Z,12.90
2019-03-28T07:52:37.533Z,12.52
2019-03-28T07:55:07.733Z,12.82
2019-03-28T07:57:36.478Z,12.79
2019-03-28T08:00:10.717Z,12.66
2019-03-28T08:02:39.373Z,12.65
2019-03-28T08:05:11.169Z,12.68
2019-03-28T08:07:45.269Z,12.56
2019-03-28T08:10:11.653Z,12.53
2019-03-28T08:12:40.412Z,12.66
2019-03-28T08:15:11.124Z,12.75
2019-03-28T08:17:39.874Z,12.77
2019-03-28T08:20:11.020Z,12.85
2019-03-28T08:22:39.699Z,12.81
2019-03-28T08:25:13.846Z,12.95
2019-03-28T08:27:43.559Z,12.75
2019-03-28T08:30:18.907Z,12.87
2019-03-28T08:32:44.616Z,12.95
2019-03-28T08:35:13.540Z,12.95
2019-03-28T08:37:43.583Z,12.88
2019-03-28T08:40:15.183Z,12.94
2019-03-28T08:42:43.871Z,12.68
2019-03-28T08:45:12.515Z,12.80
2019-03-28T08:47:41.258Z,12.90
2019-03-28T08:50:09.975Z,12.95
2019-03-28T08:52:38.679Z,13.04
2019-03-28T08:55:10.144Z,12.94
2019-03-28T08:57:38.816Z,12.68
2019-03-28T09:00:10.711Z,12.76
2019-03-28T09:02:39.434Z,12.82
2019-03-28T09:05:09.285Z,12.92
2019-03-28T09:07:37.938Z,13.03
2019-03-28T09:12:35.874Z,13.21
2019-03-28T09:15:10.848Z,13.00
2019-03-28T09:17:39.731Z,13.21
2019-03-28T09:20:10.647Z,13.28
2019-03-28T09:22:39.456Z,13.31
2019-03-28T09:25:08.421Z,13.29
2019-03-28T09:27:37.116Z,13.28
2019-03-28T09:30:11.751Z,13.36
2019-03-28T09:32:40.925Z,13.30
2019-03-28T09:35:09.974Z,13.38
2019-03-28T09:37:38.633Z,13.62
2019-03-28T09:40:08.421Z,13.69
2019-03-28T09:42:37.142Z,13.94
2019-03-28T09:45:09.220Z,14.02
2019-03-28T09:47:37.930Z,14.15
2019-03-28T09:50:07.853Z,14.10
2019-03-28T09:52:36.517Z,13.85
2019-03-28T09:55:06.512Z,13.95
2019-03-28T09:57:35.251Z,13.93
2019-03-28T10:00:13.718Z,14.05
2019-03-28T10:02:44.096Z,13.95
2019-03-28T10:05:13.770Z,13.31
2019-03-28T10:07:42.478Z,14.01
2019-03-28T10:10:11.559Z,14.26
2019-03-28T10:12:40.218Z,14.30
2019-03-28T10:15:09.783Z,14.55
2019-03-28T10:17:38.463Z,14.62
2019-03-28T10:20:08.989Z,14.56
2019-03-28T10:22:37.778Z,14.49
2019-03-28T10:25:07.603Z,14.64
2019-03-28T10:27:37.215Z,14.50
2019-03-28T10:30:08.094Z,14.11
2019-03-28T10:32:36.765Z,14.48
2019-03-28T10:35:07.107Z,14.82
2019-03-28T10:37:36.237Z,14.53
2019-03-28T10:40:07.858Z,14.33
2019-03-28T10:42:36.471Z,14.85
2019-03-28T10:45:06.895Z,14.84
2019-03-28T10:47:35.593Z,14.84
2019-03-28T10:50:06.789Z,14.90
2019-03-28T10:52:35.471Z,14.84
2019-03-28T10:55:05.852Z,15.23
2019-03-28T10:57:34.547Z,15.15
2019-03-28T11:00:04.797Z,15.28
2019-03-28T11:02:33.458Z,15.03
2019-03-28T11:05:02.252Z,15.14
2019-03-28T11:07:30.930Z,15.29
2019-03-28T11:10:00.743Z,15.47
2019-03-28T11:12:29.609Z,15.41
2019-03-28T11:14:58.429Z,15.24
2019-03-28T11:17:27.111Z,15.39
2019-03-28T11:19:56.283Z,15.43
2019-03-28T11:22:25.416Z,15.28
2019-03-28T11:24:54.117Z,15.28
2019-03-28T11:27:23.557Z,15.27
2019-03-28T11:29:52.841Z,15.16
2019-03-28T11:32:21.563Z,15.11
2019-03-28T11:34:50.447Z,15.28
2019-03-28T11:37:26.099Z,14.65
2019-03-28T11:39:49.657Z,14.79
2019-03-28T11:42:18.407Z,14.79
2019-03-28T11:44:47.127Z,14.69
2019-03-28T11:47:15.915Z,14.52
2019-03-28T11:49:44.634Z,14.43
2019-03-28T11:52:13.261Z,14.07
2019-03-28T11:54:42.065Z,14.07
2019-03-28T11:57:10.819Z,14.07
2019-03-28T11:59:39.527Z,14.06
2019-03-28T12:02:19.728Z,14.00
2019-03-28T12:04:38.903Z,14.02
2019-03-28T12:07:08.137Z,13.99
2019-03-28T12:09:36.758Z,13.96
2019-03-28T12:12:05.446Z,13.98
2019-03-28T12:14:34.151Z,13.96
2019-03-28T12:17:02.702Z,14.08
2019-03-28T12:19:31.425Z,13.76
2019-03-28T12:22:00.045Z,13.75
2019-03-28T12:24:28.763Z,13.82
2019-03-28T12:26:57.406Z,13.64
2019-03-28T12:29:26.173Z,13.72
2019-03-28T12:31:54.923Z,13.47
2019-03-28T12:34:23.618Z,13.58
2019-03-28T12:36:52.391Z,13.47
2019-03-28T12:39:21.227Z,13.53
2019-03-28T12:41:50.018Z,13.54
2019-03-28T12:44:18.557Z,13.33
2019-03-28T12:46:47.220Z,13.43
2019-03-28T12:49:15.917Z,13.34
2019-03-28T12:51:44.648Z,13.16
2019-03-28T12:54:13.736Z,13.27
2019-03-28T12:56:42.439Z,13.05
2019-03-28T12:59:11.322Z,13.34
2019-03-28T13:01:40.021Z,13.35
2019-03-28T13:04:08.805Z,13.31
2019-03-28T13:06:37.575Z,13.20
2019-03-28T13:09:09.829Z,13.30
2019-03-28T13:11:39.281Z,13.57
2019-03-28T13:14:11.423Z,13.64
2019-03-28T13:16:40.196Z,13.65
2019-03-28T13:19:08.845Z,13.58
2019-03-28T13:21:37.591Z,13.39
2019-03-28T13:24:07.969Z,13.34
2019-03-28T13:26:37.317Z,13.22
2019-03-28T13:29:06.719Z,13.23
2019-03-28T13:31:35.550Z,13.46
2019-03-28T13:34:05.113Z,13.62
2019-03-28T13:36:33.747Z,13.01
2019-03-28T13:39:05.699Z,13.54
2019-03-28T13:41:34.494Z,13.45
2019-03-28T13:44:18.626Z,13.45
2019-03-28T13:47:04.980Z,13.47
2019-03-28T13:49:48.931Z,13.51
2019-03-28T13:52:46.689Z,13.49
2019-03-28T13:55:17.355Z,13.47
2019-03-28T13:57:47.799Z,13.33
2019-03-28T14:00:19.072Z,13.39
2019-03-28T14:02:57.101Z,13.33
2019-03-28T14:05:18.111Z,13.36
2019-03-28T14:07:46.877Z,13.43
2019-03-28T14:10:15.571Z,13.34
2019-03-28T14:12:44.241Z,13.40
2019-03-28T14:15:12.937Z,13.41
2019-03-28T14:17:41.640Z,13.45
2019-03-28T14:20:11.805Z,13.43
2019-03-28T14:22:40.444Z,13.54
2019-03-28T14:25:09.434Z,13.60
2019-03-28T14:27:38.243Z,13.57
2019-03-28T14:30:10.752Z,13.60
2019-03-28T14:32:52.473Z,13.61
2019-03-28T14:35:10.658Z,13.66
2019-03-28T14:37:40.843Z,13.58
2019-03-28T14:40:10.755Z,13.51
2019-03-28T14:42:40.730Z,13.61
2019-03-28T14:45:10.002Z,13.56
2019-03-28T14:47:38.690Z,13.54
2019-03-28T14:50:10.107Z,13.28
2019-03-28T14:52:38.833Z,13.14
2019-03-28T14:55:07.589Z,13.28
2019-03-28T14:57:37.238Z,13.33
2019-03-28T15:00:11.589Z,13.36
2019-03-28T15:02:40.251Z,13.35
2019-03-28T15:05:09.012Z,13.32
2019-03-28T15:07:37.776Z,13.35
2019-03-28T15:10:07.931Z,13.36
2019-03-28T15:12:36.570Z,13.27
2019-03-28T15:15:06.892Z,13.27
2019-03-28T15:17:35.492Z,13.21
2019-03-28T15:20:05.942Z,13.16
2019-03-28T15:22:34.732Z,13.00
2019-03-28T15:25:03.408Z,13.12
2019-03-28T15:27:32.065Z,13.32
2019-03-28T15:30:00.738Z,13.08
2019-03-28T15:32:29.435Z,12.91
2019-03-28T15:34:58.159Z,12.99
2019-03-28T15:37:26.889Z,13.07
2019-03-28T15:39:55.561Z,12.92
2019-03-28T15:42:24.226Z,12.91
2019-03-28T15:44:52.926Z,12.80
2019-03-28T15:47:21.495Z,12.74
2019-03-28T15:49:50.206Z,12.46
2019-03-28T15:52:19.016Z,12.45
2019-03-28T15:54:47.641Z,12.39
2019-03-28T15:57:16.364Z,12.42
2019-03-28T15:59:45.033Z,12.51
2019-03-28T16:02:13.776Z,12.57
2019-03-28T16:04:42.450Z,12.60
2019-03-28T16:07:11.112Z,12.58
2019-03-28T16:09:39.892Z,12.69
2019-03-28T16:12:08.544Z,12.83
2019-03-28T16:14:37.274Z,12.81
2019-03-28T16:17:05.954Z,12.82
2019-03-28T16:19:34.683Z,12.90
2019-03-28T16:22:04.294Z,12.94
2019-03-28T16:24:33.533Z,12.83
2019-03-28T16:27:03.154Z,12.70
2019-03-28T16:29:31.958Z,12.69
2019-03-28T16:32:00.686Z,12.68
2019-03-28T16:34:29.447Z,12.72
2019-03-28T16:37:01.809Z,12.73
2019-03-28T16:39:30.938Z,12.82
2019-03-28T16:41:59.634Z,12.81
2019-03-28T16:44:28.291Z,12.73
2019-03-28T16:46:57.197Z,12.58
2019-03-28T16:49:26.807Z,12.64
2019-03-28T16:51:55.514Z,12.50
2019-03-28T16:54:35.901Z,12.41
2019-03-28T16:57:05.151Z,12.56
2019-03-28T16:59:34.473Z,12.32
2019-03-28T17:02:04.470Z,12.27
2019-03-28T17:04:33.212Z,12.36
2019-03-28T17:07:02.491Z,12.40
2019-03-28T17:09:32.856Z,12.37
2019-03-28T17:12:01.585Z,12.16
2019-03-28T17:14:30.562Z,12.16
2019-03-28T17:17:01.190Z,12.11
2019-03-28T17:19:31.804Z,12.17
2019-03-28T17:22:00.664Z,12.07
2019-03-28T17:24:29.590Z,12.01
2019-03-28T17:27:00.098Z,12.11
2019-03-28T17:29:28.937Z,12.11
2019-03-28T17:31:58.096Z,12.12
2019-03-28T17:34:34.811Z,12.05
2019-03-28T17:36:57.675Z,11.98
2019-03-28T17:39:26.710Z,11.78
2019-03-28T17:41:58.027Z,12.04
2019-03-28T17:44:26.878Z,12.03
2019-03-28T17:46:56.273Z,11.94
2019-03-28T17:49:25.909Z,11.84
2019-03-28T17:51:55.072Z,11.79
2019-03-28T17:54:24.093Z,11.76
2019-03-28T17:56:53.071Z,11.74
2019-03-28T17:59:22.543Z,11.78
2019-03-28T18:01:51.333Z,11.72
2019-03-28T18:04:23.048Z,11.78
2019-03-28T18:06:50.598Z,11.91
2019-03-28T18:09:20.592Z,11.79
2019-03-28T18:11:49.306Z,11.62
2019-03-28T18:14:18.627Z,11.57
2019-03-28T18:16:47.390Z,11.47
2019-03-28T18:19:16.637Z,11.55
2019-03-28T18:21:45.409Z,11.62
2019-03-28T18:24:14.076Z,11.62
2019-03-28T18:26:42.885Z,11.62
2019-03-28T18:29:19.306Z,11.63
2019-03-28T18:31:50.639Z,11.40
2019-03-28T18:34:23.002Z,11.44
2019-03-28T18:36:52.737Z,11.54
2019-03-28T18:39:24.169Z,11.50
2019-03-28T18:41:56.376Z,11.42
2019-03-28T18:44:23.865Z,11.32
2019-03-28T18:46:52.701Z,11.23
2019-03-28T18:49:21.571Z,11.26
2019-03-28T18:51:50.457Z,11.17
2019-03-28T18:54:20.511Z,11.15
2019-03-28T18:56:51.079Z,11.11
2019-03-28T18:59:20.197Z,11.14
2019-03-28T19:01:49.182Z,11.16
2019-03-28T19:04:18.065Z,11.15
2019-03-28T19:06:46.968Z,11.09
2019-03-28T19:09:15.848Z,11.10
2019-03-28T19:11:47.112Z,11.20
2019-03-28T19:14:16.046Z,11.30
2019-03-28T19:16:52.311Z,11.22
2019-03-28T19:19:22.026Z,10.98
2019-03-28T19:21:50.953Z,10.83
2019-03-28T19:24:19.709Z,10.78
2019-03-28T19:26:48.729Z,10.72
2019-03-28T19:29:17.468Z,10.82
2019-03-28T19:31:46.342Z,10.98
2019-03-28T19:34:15.294Z,10.86
2019-03-28T19:36:45.014Z,10.88
2019-03-28T19:39:17.279Z,10.78
2019-03-28T19:41:46.094Z,10.76
2019-03-28T19:44:15.114Z,10.75
2019-03-28T19:46:59.235Z,10.68
2019-03-28T19:49:28.000Z,10.61
2019-03-28T19:51:56.952Z,10.56
2019-03-28T19:54:27.802Z,10.61
2019-03-28T19:56:58.011Z,10.52
2019-03-28T19:59:26.815Z,10.49
2019-03-28T20:01:56.753Z,10.43
2019-03-28T20:04:25.469Z,10.44
2019-03-28T20:06:54.306Z,10.53
2019-03-28T20:09:23.049Z,10.48
2019-03-28T20:11:51.814Z,10.42
2019-03-28T20:14:20.582Z,10.47
2019-03-28T20:16:49.305Z,10.50
2019-03-28T20:19:32.017Z,10.48
2019-03-28T20:22:05.293Z,10.49
2019-03-28T20:24:34.469Z,10.45
2019-03-28T20:27:03.318Z,10.42
2019-03-28T20:29:33.540Z,10.40
2019-03-28T20:32:02.413Z,10.43
2019-03-28T20:34:31.177Z,10.61
2019-03-28T20:36:59.817Z,10.57
2019-03-28T20:39:28.477Z,10.56
2019-03-28T20:41:57.223Z,10.31
2019-03-28T20:44:25.957Z,10.32
2019-03-28T20:46:55.283Z,10.23
2019-03-28T20:49:25.185Z,10.42
2019-03-28T20:51:53.930Z,10.25
2019-03-28T20:54:23.466Z,10.31
2019-03-28T20:56:52.188Z,10.31
2019-03-28T20:59:20.959Z,10.37
2019-03-28T21:01:49.772Z,10.37
2019-03-28T21:04:30.779Z,10.34
2019-03-28T21:06:49.081Z,10.38
2019-03-28T21:09:18.127Z,10.27
2019-03-28T21:11:48.999Z,10.11
2019-03-28T21:14:17.445Z,10.11
2019-03-28T21:16:51.708Z,10.07
2019-03-28T21:19:21.173Z,10.17
2019-03-28T21:21:49.843Z,10.31
2019-03-28T21:24:18.605Z,10.31
2019-03-28T21:26:48.812Z,10.33
2019-03-28T21:29:20.273Z,10.45
2019-03-28T21:31:55.285Z,10.53
2019-03-28T21:34:30.404Z,10.30
2019-03-28T21:37:01.323Z,10.27
2019-03-28T21:39:35.133Z,10.25
2019-03-28T21:42:07.036Z,10.15
2019-03-28T21:44:35.057Z,10.27
2019-03-28T21:47:06.726Z,10.25
2019-03-28T21:49:44.710Z,10.24
2019-03-28T21:52:22.551Z,10.17
2019-03-28T21:54:52.234Z,10.05
2019-03-28T21:57:29.687Z,9.91
2019-03-28T21:59:59.203Z,9.53
2019-03-28T22:02:28.376Z,9.99
2019-03-28T22:04:57.127Z,9.96
2019-03-28T22:07:27.638Z,10.00
2019-03-28T22:09:56.361Z,10.00
2019-03-28T22:12:25.119Z,9.88
2019-03-28T22:14:54.576Z,9.86
2019-03-28T22:17:23.403Z,9.84
2019-03-28T22:19:52.088Z,9.76
2019-03-28T22:22:20.750Z,9.77
2019-03-28T22:24:49.710Z,9.85
2019-03-28T22:27:18.434Z,9.93
2019-03-28T22:29:47.247Z,9.89
2019-03-28T22:32:16.047Z,9.98
2019-03-28T22:34:44.694Z,9.87
2019-03-28T22:37:13.728Z,9.88
2019-03-28T22:39:42.453Z,9.79
2019-03-28T22:42:11.120Z,9.93
2019-03-28T22:44:39.929Z,9.87
2019-03-28T22:47:08.712Z,9.91
2019-03-28T22:49:37.385Z,9.88
2019-03-28T22:52:06.197Z,9.82
2019-03-28T22:54:34.934Z,9.86
2019-03-28T22:57:03.684Z,9.89
2019-03-28T22:59:32.419Z,9.82
2019-03-28T23:02:01.190Z,9.82
2019-03-28T23:04:29.991Z,9.82
2019-03-28T23:07:10.307Z,9.85
2019-03-28T23:09:29.164Z,9.68
2019-03-28T23:11:57.920Z,9.68
2019-03-28T23:14:26.604Z,9.67
2019-03-28T23:16:55.316Z,9.64
2019-03-28T23:19:24.206Z,9.59
2019-03-28T23:21:52.913Z,9.44
2019-03-28T23:24:21.556Z,9.41
2019-03-28T23:26:50.189Z,9.41
2019-03-28T23:29:18.913Z,9.40
2019-03-28T23:31:50.616Z,9.36
2019-03-28T23:34:18.176Z,9.38
2019-03-28T23:36:47.048Z,9.41
2019-03-28T23:39:15.819Z,9.41
2019-03-28T23:41:44.547Z,9.44
2019-03-28T23:44:14.018Z,9.25
2019-03-28T23:46:42.768Z,9.04
2019-03-28T23:49:11.571Z,8.87
2019-03-28T23:51:40.407Z,8.77
2019-03-28T23:54:09.243Z,8.61
2019-03-28T23:56:37.975Z,8.21
2019-03-28T23:59:06.668Z,8.21
